createdAt,value
2023-03-22T00:01:12.044Z,17.08
2023-03-22T00:04:14.398Z,17.06
2023-03-22T00:07:16.810Z,17.07
2023-03-22T00:10:19.145Z,17.04
2023-03-22T00:13:21.480Z,17.02
2023-03-22T00:16:23.918Z,17.01
2023-03-22T00:19:26.733Z,17.01
2023-03-22T00:22:29.082Z,17.00
2023-03-22T00:25:31.489Z,16.76
2023-03-22T00:28:34.622Z,16.91
2023-03-22T00:31:37.068Z,16.94
2023-03-22T00:34:39.462Z,16.93
2023-03-22T00:37:41.782Z,16.92
2023-03-22T00:40:44.445Z,16.90
2023-03-22T00:43:47.364Z,16.79
2023-03-22T00:46:49.728Z,16.79
2023-03-22T00:49:52.106Z,16.83
2023-03-22T00:52:54.448Z,16.82
2023-03-22T00:55:57.424Z,16.80
2023-03-22T00:59:00.403Z,16.81
2023-03-22T01:02:04.291Z,16.76
2023-03-22T01:05:07.332Z,16.74
2023-03-22T01:08:10.488Z,16.75
2023-03-22T01:11:13.154Z,16.73
2023-03-22T01:14:15.546Z,16.67
2023-03-22T01:17:17.981Z,16.62
2023-03-22T01:20:20.462Z,16.71
2023-03-22T01:23:22.840Z,16.68
2023-03-22T01:26:25.652Z,16.66
2023-03-22T01:29:28.202Z,16.65
2023-03-22T01:32:30.595Z,16.64
2023-03-22T01:35:33.888Z,16.64
2023-03-22T01:38:36.552Z,16.63
2023-03-22T01:41:39.370Z,16.51
2023-03-22T01:45:14.396Z,16.59
2023-03-22T01:48:34.285Z,16.58
2023-03-22T01:51:53.780Z,16.56
2023-03-22T01:55:09.846Z,16.50
2023-03-22T01:58:19.795Z,16.51
2023-03-22T02:01:31.066Z,16.48
2023-03-22T02:04:39.300Z,16.55
2023-03-22T02:07:44.198Z,16.53
2023-03-22T02:10:47.082Z,16.43
2023-03-22T02:14:14.766Z,16.51
2023-03-22T02:17:53.701Z,16.50
2023-03-22T02:21:26.999Z,16.50
2023-03-22T02:25:00.326Z,16.49
2023-03-22T02:28:36.711Z,16.50
2023-03-22T02:32:06.892Z,16.44
2023-03-22T02:35:33.571Z,16.51
2023-03-22T02:38:57.835Z,16.53
2023-03-22T02:42:17.414Z,16.51
2023-03-22T02:45:31.763Z,16.53
2023-03-22T02:48:54.316Z,16.53
2023-03-22T02:52:07.291Z,16.51
2023-03-22T02:55:19.097Z,16.55
2023-03-22T02:58:26.604Z,16.45
2023-03-22T03:01:34.383Z,16.46
2023-03-22T03:04:41.631Z,16.51
2023-03-22T03:07:48.920Z,16.53
2023-03-22T03:10:51.921Z,16.48
2023-03-22T03:13:54.542Z,16.55
2023-03-22T03:17:28.174Z,16.55
2023-03-22T03:20:39.838Z,16.55
2023-03-22T03:23:49.642Z,16.50
2023-03-22T03:26:58.472Z,16.60
2023-03-22T03:30:17.193Z,16.57
2023-03-22T03:33:22.479Z,16.62
2023-03-22T03:36:26.998Z,16.53
2023-03-22T03:39:33.469Z,16.57
2023-03-22T03:42:37.791Z,16.52
2023-03-22T03:45:40.809Z,16.59
2023-03-22T03:48:47.110Z,16.61
2023-03-22T03:51:52.619Z,16.42
2023-03-22T03:54:55.287Z,16.61
2023-03-22T03:58:03.516Z,16.59
2023-03-22T04:01:06.180Z,16.62
2023-03-22T04:04:31.229Z,16.61
2023-03-22T04:07:37.452Z,16.59
2023-03-22T04:10:40.099Z,16.65
2023-03-22T04:13:42.657Z,16.72
2023-03-22T04:16:49.373Z,16.93
2023-03-22T04:19:57.182Z,17.08
2023-03-22T04:23:00.327Z,17.35
2023-03-22T04:26:03.776Z,17.62
2023-03-22T04:29:16.362Z,17.85
2023-03-22T04:32:26.306Z,18.10
2023-03-22T04:35:30.415Z,18.40
2023-03-22T04:38:33.876Z,18.64
2023-03-22T04:41:37.233Z,18.94
2023-03-22T04:44:39.659Z,19.21
2023-03-22T04:47:42.207Z,19.37
2023-03-22T04:50:45.661Z,19.48
2023-03-22T04:53:48.116Z,19.59
2023-03-22T04:56:50.933Z,19.61
2023-03-22T04:59:55.374Z,19.64
2023-03-22T05:02:58.499Z,19.61
2023-03-22T05:06:10.397Z,19.56
2023-03-22T05:09:23.494Z,19.59
2023-03-22T05:12:28.578Z,19.48
2023-03-22T05:15:39.761Z,19.45
2023-03-22T05:18:45.626Z,19.39
2023-03-22T05:21:48.810Z,19.36
2023-03-22T05:24:51.368Z,19.35
2023-03-22T05:28:03.596Z,19.28
2023-03-22T05:31:22.664Z,19.20
2023-03-22T05:34:35.877Z,19.20
2023-03-22T05:37:49.426Z,19.17
2023-03-22T05:40:54.448Z,19.13
2023-03-22T05:43:57.457Z,18.98
2023-03-22T05:47:00.114Z,18.90
2023-03-22T05:50:02.609Z,18.96
2023-03-22T05:53:07.070Z,18.91
2023-03-22T05:56:47.691Z,18.85
2023-03-22T05:59:53.930Z,18.82
2023-03-22T06:03:03.747Z,18.73
2023-03-22T06:06:10.826Z,18.73
2023-03-22T06:09:23.615Z,18.68
2023-03-22T06:12:30.064Z,18.57
2023-03-22T06:15:41.727Z,18.57
2023-03-22T06:18:46.407Z,18.47
2023-03-22T06:21:48.778Z,18.52
2023-03-22T06:24:52.413Z,18.45
2023-03-22T06:28:08.799Z,18.55
2023-03-22T06:31:13.355Z,18.56
2023-03-22T06:34:24.435Z,18.58
2023-03-22T06:37:27.026Z,18.54
2023-03-22T06:40:30.725Z,18.56
2023-03-22T06:43:33.234Z,18.54
2023-03-22T06:46:47.882Z,18.70
2023-03-22T06:50:14.939Z,18.71
2023-03-22T06:53:37.631Z,18.75
2023-03-22T06:56:40.473Z,18.60
2023-03-22T06:59:43.480Z,18.67
2023-03-22T07:02:46.114Z,18.62
2023-03-22T07:06:07.277Z,18.58
2023-03-22T07:09:13.265Z,18.58
2023-03-22T07:12:16.193Z,18.58
2023-03-22T07:15:24.277Z,18.50
2023-03-22T07:18:36.860Z,18.53
2023-03-22T07:21:40.005Z,18.51
2023-03-22T07:24:57.027Z,18.47
2023-03-22T07:28:01.768Z,18.49
2023-03-22T07:31:07.928Z,18.54
2023-03-22T07:34:20.850Z,18.40
2023-03-22T07:37:46.429Z,18.59
2023-03-22T07:40:57.625Z,18.43
2023-03-22T07:44:17.738Z,18.53
2023-03-22T07:47:42.617Z,18.64
2023-03-22T07:50:56.765Z,18.75
2023-03-22T07:54:01.691Z,18.87
2023-03-22T07:57:05.462Z,18.97
2023-03-22T08:00:12.191Z,19.21
2023-03-22T08:03:37.836Z,19.50
2023-03-22T08:06:49.985Z,19.82
2023-03-22T08:09:52.792Z,20.08
2023-03-22T08:12:55.479Z,20.27
2023-03-22T08:16:01.140Z,20.47
2023-03-22T08:19:03.621Z,20.62
2023-03-22T08:22:10.152Z,20.77
2023-03-22T08:25:32.494Z,20.93
2023-03-22T08:28:51.150Z,20.84
2023-03-22T08:31:54.281Z,20.51
2023-03-22T08:34:56.751Z,20.45
2023-03-22T08:37:59.363Z,20.36
2023-03-22T08:41:10.844Z,20.27
2023-03-22T08:44:13.368Z,20.09
2023-03-22T08:47:16.902Z,20.07
2023-03-22T08:50:20.180Z,19.91
2023-03-22T08:53:29.999Z,19.88
2023-03-22T08:56:52.090Z,19.93
2023-03-22T09:00:25.113Z,19.87
2023-03-22T09:03:40.562Z,19.93
2023-03-22T09:06:45.459Z,20.19
2023-03-22T09:09:47.899Z,20.31
2023-03-22T09:12:50.833Z,20.54
2023-03-22T09:15:53.354Z,20.67
2023-03-22T09:19:02.496Z,20.65
2023-03-22T09:22:06.271Z,20.80
2023-03-22T09:25:17.056Z,20.99
2023-03-22T09:28:24.053Z,21.00
2023-03-22T09:31:30.949Z,21.18
2023-03-22T09:34:44.085Z,21.24
2023-03-22T09:37:55.619Z,21.30
2023-03-22T09:41:06.806Z,21.38
2023-03-22T09:44:15.520Z,21.46
2023-03-22T09:47:43.901Z,21.49
2023-03-22T09:50:52.780Z,21.49
2023-03-22T09:53:55.386Z,21.49
2023-03-22T09:57:06.774Z,21.68
2023-03-22T10:00:44.729Z,21.40
2023-03-22T10:03:47.255Z,21.71
2023-03-22T10:06:59.987Z,21.60
2023-03-22T10:10:13.451Z,21.67
2023-03-22T10:13:18.029Z,21.76
2023-03-22T10:16:28.691Z,21.75
2023-03-22T10:19:35.788Z,21.74
2023-03-22T10:22:43.193Z,21.73
2023-03-22T10:25:46.470Z,21.80
2023-03-22T10:29:06.054Z,21.84
2023-03-22T10:32:54.786Z,21.85
2023-03-22T10:35:59.772Z,21.85
2023-03-22T10:39:29.282Z,21.91
2023-03-22T10:42:31.948Z,22.04
2023-03-22T10:45:36.507Z,22.02
2023-03-22T10:48:42.516Z,22.19
2023-03-22T10:51:49.994Z,21.99
2023-03-22T10:54:52.614Z,21.96
2023-03-22T10:57:59.635Z,22.26
2023-03-22T11:01:09.211Z,22.27
2023-03-22T11:04:15.792Z,22.32
2023-03-22T11:07:44.356Z,22.34
2023-03-22T11:10:51.356Z,22.33
2023-03-22T11:14:15.249Z,22.30
2023-03-22T11:17:23.810Z,22.22
2023-03-22T11:20:26.324Z,22.15
2023-03-22T11:23:32.809Z,22.23
2023-03-22T11:26:40.702Z,22.41
2023-03-22T11:29:47.362Z,22.26
2023-03-22T11:33:09.994Z,22.35
2023-03-22T11:36:18.101Z,22.11
2023-03-22T11:39:23.869Z,22.25
2023-03-22T11:42:26.577Z,22.14
2023-03-22T11:45:31.729Z,21.99
2023-03-22T11:48:35.032Z,21.77
2023-03-22T11:51:39.148Z,21.52
2023-03-22T11:54:42.650Z,21.40
2023-03-22T11:57:45.785Z,21.15
2023-03-22T12:00:52.475Z,21.14
2023-03-22T12:03:57.061Z,21.03
2023-03-22T12:07:00.665Z,21.03
2023-03-22T12:10:12.630Z,21.00
2023-03-22T12:13:21.308Z,20.96
2023-03-22T12:16:28.709Z,20.91
2023-03-22T12:19:31.205Z,20.86
2023-03-22T12:22:37.702Z,20.69
2023-03-22T12:25:40.779Z,20.65
2023-03-22T12:28:56.485Z,20.61
2023-03-22T12:32:03.478Z,20.49
2023-03-22T12:35:17.253Z,20.53
2023-03-22T12:38:27.881Z,20.53
2023-03-22T12:41:39.031Z,20.39
2023-03-22T12:44:52.759Z,20.36
2023-03-22T12:48:45.181Z,20.31
2023-03-22T12:51:49.273Z,20.27
2023-03-22T12:54:52.594Z,20.22
2023-03-22T12:57:55.710Z,20.18
2023-03-22T13:01:06.528Z,20.20
2023-03-22T13:04:35.795Z,20.25
2023-03-22T13:07:45.970Z,20.25
2023-03-22T13:11:01.900Z,20.25
2023-03-22T13:14:04.297Z,20.05
2023-03-22T13:17:07.444Z,20.23
2023-03-22T13:20:13.677Z,20.22
2023-03-22T13:23:26.559Z,20.19
2023-03-22T13:26:32.847Z,20.14
2023-03-22T13:29:36.574Z,20.27
2023-03-22T13:32:51.647Z,20.40
2023-03-22T13:36:07.035Z,20.61
2023-03-22T13:39:12.519Z,20.81
2023-03-22T13:42:19.534Z,20.93
2023-03-22T13:45:33.598Z,21.26
2023-03-22T13:49:02.500Z,21.48
2023-03-22T13:52:07.693Z,21.59
2023-03-22T13:55:38.113Z,21.63
2023-03-22T13:58:46.715Z,21.72
2023-03-22T14:02:15.904Z,21.75
2023-03-22T14:05:22.432Z,21.66
2023-03-22T14:08:28.546Z,21.60
2023-03-22T14:12:01.570Z,21.68
2023-03-22T14:15:05.325Z,21.49
2023-03-22T14:18:33.654Z,21.59
2023-03-22T14:21:42.925Z,21.52
